createdAt,value
2019-05-18T00:00:48.490Z,28.03
2019-05-18T00:03:19.471Z,29.53
2019-05-18T00:05:50.490Z,32.03
2019-05-18T00:08:21.281Z,27.60
2019-05-18T00:10:52.200Z,26.53
2019-05-18T00:13:22.741Z,26.97
2019-05-18T00:15:53.372Z,26.70
2019-05-18T00:18:24.388Z,25.73
2019-05-18T00:20:54.992Z,26.97
2019-05-18T00:23:25.812Z,26.87
2019-05-18T00:25:56.408Z,26.83
2019-05-18T00:28:27.070Z,27.90
2019-05-18T00:31:00.766Z,28.50
2019-05-18T00:33:31.836Z,26.67
2019-05-18T00:36:02.552Z,24.73
2019-05-18T00:38:33.223Z,25.43
2019-05-18T00:41:03.716Z,26.80
2019-05-18T00:43:34.250Z,28.93
2019-05-18T00:46:05.349Z,26.73
2019-05-18T00:48:37.111Z,26.90
2019-05-18T00:51:07.605Z,25.97
2019-05-18T00:53:38.605Z,25.07
2019-05-18T00:56:09.060Z,28.33
2019-05-18T00:58:39.645Z,26.03
2019-05-18T01:01:10.312Z,25.77
2019-05-18T01:03:40.982Z,23.80
2019-05-18T01:06:11.887Z,25.43
2019-05-18T01:08:43.022Z,25.90
2019-05-18T01:11:13.692Z,25.53
2019-05-18T01:13:44.449Z,30.73
2019-05-18T01:16:15.337Z,30.50
2019-05-18T01:18:45.777Z,28.30
2019-05-18T01:21:17.414Z,27.73
2019-05-18T01:23:48.414Z,27.27
2019-05-18T01:26:18.960Z,24.60
2019-05-18T01:28:49.452Z,25.23
2019-05-18T01:31:20.158Z,25.37
2019-05-18T01:33:50.757Z,24.73
2019-05-18T01:36:21.486Z,29.13
2019-05-18T01:38:52.110Z,25.43
2019-05-18T01:41:23.011Z,31.10
2019-05-18T01:43:53.726Z,28.87
2019-05-18T01:46:24.148Z,30.03
2019-05-18T01:48:54.720Z,28.87
2019-05-18T01:51:25.540Z,31.97
2019-05-18T01:53:56.190Z,29.20
2019-05-18T01:56:26.869Z,29.27
2019-05-18T01:58:57.527Z,31.10
2019-05-18T02:01:27.986Z,28.63
2019-05-18T02:04:01.322Z,31.50
2019-05-18T02:06:31.840Z,30.73
2019-05-18T02:09:02.494Z,29.77
2019-05-18T02:11:33.446Z,27.73
2019-05-18T02:14:04.639Z,28.57
2019-05-18T02:16:35.304Z,29.93
2019-05-18T02:19:05.764Z,27.50
2019-05-18T02:21:36.369Z,27.37
2019-05-18T02:24:07.167Z,26.80
2019-05-18T02:26:37.803Z,28.47
2019-05-18T02:29:08.583Z,28.13
2019-05-18T02:31:39.183Z,28.20
2019-05-18T02:34:09.859Z,30.13
2019-05-18T02:36:40.872Z,30.27
2019-05-18T02:39:12.560Z,30.67
2019-05-18T02:41:43.294Z,33.40
2019-05-18T02:44:14.341Z,30.17
2019-05-18T02:46:46.391Z,30.67
2019-05-18T02:49:17.000Z,30.60
2019-05-18T02:51:47.886Z,30.37
2019-05-18T02:54:18.436Z,31.07
2019-05-18T02:56:49.131Z,35.07
2019-05-18T02:59:19.974Z,32.67
2019-05-18T03:01:53.097Z,32.60
2019-05-18T03:04:23.968Z,32.13
2019-05-18T03:06:55.063Z,31.17
2019-05-18T03:09:27.622Z,29.10
2019-05-18T03:11:58.580Z,30.47
2019-05-18T03:14:29.613Z,31.50
2019-05-18T03:17:00.776Z,31.53
2019-05-18T03:19:31.403Z,33.50
2019-05-18T03:22:02.129Z,31.20
2019-05-18T03:24:33.029Z,32.13
2019-05-18T03:27:03.962Z,32.63
2019-05-18T03:29:34.807Z,36.07
2019-05-18T03:32:05.873Z,31.07
2019-05-18T03:34:36.359Z,32.27
2019-05-18T03:37:07.077Z,37.47
2019-05-18T03:39:37.607Z,33.20
2019-05-18T03:42:08.107Z,33.80
2019-05-18T03:44:38.571Z,36.00
2019-05-18T03:47:10.439Z,37.90
2019-05-18T03:49:41.207Z,34.60
2019-05-18T03:52:11.983Z,33.17
2019-05-18T03:54:42.475Z,35.57
2019-05-18T03:57:13.438Z,35.30
2019-05-18T03:59:44.092Z,36.93
2019-05-18T04:02:14.848Z,37.17
2019-05-18T04:04:45.782Z,37.53
2019-05-18T04:07:16.464Z,37.30
2019-05-18T04:09:48.369Z,34.90
2019-05-18T04:12:18.880Z,41.83
2019-05-18T04:14:49.510Z,37.03
2019-05-18T04:17:20.222Z,38.37
2019-05-18T04:19:51.132Z,37.80
2019-05-18T04:22:21.966Z,37.63
2019-05-18T04:24:52.753Z,36.37
2019-05-18T04:27:23.494Z,37.40
2019-05-18T04:29:54.299Z,43.10
2019-05-18T04:32:24.951Z,36.67
2019-05-18T04:34:55.675Z,37.27
2019-05-18T04:37:26.400Z,45.23
2019-05-18T04:39:58.805Z,36.70
2019-05-18T04:42:29.408Z,37.27
2019-05-18T04:44:59.903Z,42.53
2019-05-18T04:47:30.431Z,37.47
2019-05-18T04:50:05.821Z,35.70
2019-05-18T04:52:33.602Z,38.93
2019-05-18T04:55:04.573Z,36.03
2019-05-18T04:57:35.320Z,40.30
2019-05-18T05:00:09.389Z,39.13
2019-05-18T05:02:40.234Z,39.93
2019-05-18T05:05:10.923Z,40.07
2019-05-18T05:07:41.498Z,42.27
2019-05-18T05:10:12.616Z,44.33
2019-05-18T05:12:43.521Z,38.60
2019-05-18T05:15:14.208Z,39.03
2019-05-18T05:17:44.816Z,44.43
2019-05-18T05:20:19.832Z,67.40
2019-05-18T05:22:47.590Z,36.27
2019-05-18T05:25:18.262Z,28.20
2019-05-18T05:27:48.890Z,24.00
2019-05-18T05:30:19.911Z,24.20
2019-05-18T05:32:51.256Z,25.63
2019-05-18T05:35:24.066Z,29.30
2019-05-18T05:37:54.628Z,35.53
2019-05-18T05:40:25.239Z,46.93
2019-05-18T05:42:55.784Z,35.73
2019-05-18T05:45:26.593Z,38.70
2019-05-18T05:47:57.325Z,33.00
2019-05-18T05:50:35.877Z,26.80
2019-05-18T05:53:00.511Z,25.67
2019-05-18T05:55:31.271Z,26.10
2019-05-18T05:58:02.189Z,28.60
2019-05-18T06:00:32.943Z,30.87
2019-05-18T06:03:03.362Z,33.97
2019-05-18T06:05:34.578Z,28.17
2019-05-18T06:08:05.182Z,26.37
2019-05-18T06:10:35.852Z,23.27
2019-05-18T06:13:06.754Z,30.13
2019-05-18T06:15:37.441Z,38.73
2019-05-18T06:18:08.027Z,29.03
2019-05-18T06:20:50.876Z,27.90
2019-05-18T06:23:10.907Z,23.23
2019-05-18T06:25:41.513Z,34.37
2019-05-18T06:28:12.413Z,37.83
2019-05-18T06:30:44.151Z,32.97
2019-05-18T06:33:15.807Z,30.00
2019-05-18T06:35:46.725Z,32.40
2019-05-18T06:38:17.221Z,31.50
2019-05-18T06:40:47.789Z,28.83
2019-05-18T06:43:18.342Z,26.70
2019-05-18T06:45:49.199Z,24.57
2019-05-18T06:48:20.063Z,26.10
2019-05-18T06:51:05.982Z,24.90
2019-05-18T06:53:23.672Z,23.70
2019-05-18T06:55:55.825Z,26.70
2019-05-18T06:58:28.424Z,25.83
2019-05-18T07:00:58.982Z,22.77
2019-05-18T07:03:29.522Z,23.13
2019-05-18T07:06:00.980Z,23.20
2019-05-18T07:08:31.360Z,23.97
2019-05-18T07:11:01.976Z,26.37
2019-05-18T07:13:32.540Z,27.27
2019-05-18T07:16:03.053Z,25.07
2019-05-18T07:18:33.631Z,26.87
2019-05-18T07:21:04.128Z,25.23
2019-05-18T07:23:34.562Z,25.20
2019-05-18T07:26:05.073Z,28.27
2019-05-18T07:28:35.823Z,23.70
2019-05-18T07:31:06.360Z,25.07
2019-05-18T07:33:36.930Z,24.47
2019-05-18T07:36:07.460Z,25.53
2019-05-18T07:38:38.138Z,25.07
2019-05-18T07:41:08.560Z,25.67
2019-05-18T07:43:39.235Z,23.60
2019-05-18T07:46:09.830Z,25.80
2019-05-18T07:48:40.897Z,25.97
2019-05-18T07:51:11.459Z,22.93
2019-05-18T07:53:42.052Z,23.37
2019-05-18T07:56:12.778Z,24.53
2019-05-18T07:58:43.236Z,23.53
2019-05-18T08:01:13.648Z,24.53
2019-05-18T08:03:44.097Z,23.93
2019-05-18T08:06:14.897Z,22.07
2019-05-18T08:08:45.478Z,25.77
2019-05-18T08:11:16.991Z,25.03
2019-05-18T08:13:47.531Z,24.87
2019-05-18T08:16:18.039Z,26.10
2019-05-18T08:18:48.471Z,27.13
2019-05-18T08:21:19.008Z,25.90
2019-05-18T08:23:49.429Z,28.93
2019-05-18T08:26:54.933Z,27.37
2019-05-18T08:29:25.466Z,25.73
2019-05-18T08:31:56.045Z,27.67
2019-05-18T08:34:26.489Z,30.30
2019-05-18T08:36:57.013Z,28.63
2019-05-18T08:39:27.543Z,28.10
2019-05-18T08:41:58.015Z,25.67
2019-05-18T08:44:28.376Z,26.60
2019-05-18T08:46:58.822Z,26.33
2019-05-18T08:49:29.315Z,29.27
2019-05-18T08:52:07.882Z,27.47
2019-05-18T08:54:31.816Z,26.60
2019-05-18T08:57:02.277Z,25.20
2019-05-18T08:59:32.726Z,26.03
2019-05-18T09:02:03.175Z,25.60
2019-05-18T09:04:33.624Z,26.30
2019-05-18T09:07:04.136Z,26.70
2019-05-18T09:09:34.720Z,23.57
2019-05-18T09:12:05.252Z,23.20
2019-05-18T09:14:35.810Z,21.90
2019-05-18T09:17:06.216Z,19.77
2019-05-18T09:19:36.704Z,18.07
2019-05-18T09:22:07.265Z,16.30
2019-05-18T09:24:37.805Z,16.37
2019-05-18T09:27:08.202Z,14.13
2019-05-18T09:29:38.703Z,12.43
2019-05-18T09:32:09.271Z,13.67
2019-05-18T09:34:39.666Z,12.10
2019-05-18T09:37:10.060Z,11.60
2019-05-18T09:39:40.466Z,11.63
2019-05-18T09:42:10.984Z,9.23
2019-05-18T09:44:41.416Z,9.53
2019-05-18T09:47:11.989Z,9.70
2019-05-18T09:49:42.601Z,9.27
2019-05-18T09:52:13.233Z,11.57
2019-05-18T09:54:43.649Z,10.00
2019-05-18T09:57:14.417Z,9.13
2019-05-18T09:59:44.933Z,11.97
2019-05-18T10:02:16.027Z,9.47
2019-05-18T10:04:47.427Z,7.80
2019-05-18T10:07:18.064Z,7.73
2019-05-18T10:09:48.648Z,7.63
2019-05-18T10:12:39.213Z,11.37
2019-05-18T10:15:10.116Z,10.13
2019-05-18T10:17:40.733Z,10.37
2019-05-18T10:20:12.674Z,9.97
2019-05-18T10:22:55.526Z,9.70
2019-05-18T10:25:15.229Z,10.63
2019-05-18T10:27:46.054Z,9.80
2019-05-18T10:30:16.575Z,8.00
2019-05-18T10:32:47.047Z,8.40
2019-05-18T10:35:17.571Z,8.80
2019-05-18T10:37:47.952Z,8.20
2019-05-18T10:40:19.946Z,8.70
2019-05-18T10:42:50.442Z,8.30
2019-05-18T10:45:20.967Z,8.70
2019-05-18T10:47:51.426Z,9.50
2019-05-18T10:50:22.184Z,10.07
2019-05-18T10:52:52.788Z,9.80
2019-05-18T10:55:23.291Z,8.87
2019-05-18T10:57:53.866Z,8.57
2019-05-18T11:00:24.685Z,8.70
2019-05-18T11:02:55.276Z,8.00
2019-05-18T11:05:25.634Z,9.60
2019-05-18T11:07:56.406Z,7.90
2019-05-18T11:10:28.229Z,8.20
2019-05-18T11:12:58.760Z,8.37
2019-05-18T11:15:30.046Z,7.60
2019-05-18T11:18:00.423Z,8.20
2019-05-18T11:20:30.835Z,7.87
2019-05-18T11:23:01.235Z,8.03
2019-05-18T11:25:32.715Z,8.23
2019-05-18T11:28:03.121Z,8.37
2019-05-18T11:30:33.653Z,9.33
2019-05-18T11:33:04.218Z,8.60
2019-05-18T11:35:35.201Z,8.87
2019-05-18T11:38:05.612Z,8.80
2019-05-18T11:40:36.393Z,9.13
2019-05-18T11:43:07.857Z,9.47
2019-05-18T11:45:38.289Z,9.33
2019-05-18T11:48:08.845Z,9.77
2019-05-18T11:50:39.331Z,9.60
2019-05-18T11:53:09.795Z,9.97
2019-05-18T11:55:40.255Z,10.07
2019-05-18T11:58:10.713Z,9.90
2019-05-18T12:00:41.429Z,10.67
2019-05-18T12:03:11.928Z,9.70
2019-05-18T12:05:42.434Z,10.23
2019-05-18T12:08:14.257Z,9.50
2019-05-18T12:10:44.817Z,10.03
2019-05-18T12:13:15.565Z,11.67
2019-05-18T12:15:46.239Z,9.77
2019-05-18T12:18:17.029Z,10.23
2019-05-18T12:20:47.636Z,9.93
2019-05-18T12:23:18.372Z,9.43
2019-05-18T12:25:50.743Z,8.87
2019-05-18T12:28:21.080Z,8.70
2019-05-18T12:30:51.506Z,7.55
2019-05-18T12:33:22.180Z,7.47
2019-05-18T12:35:52.798Z,7.33
2019-05-18T12:38:23.541Z,8.50
2019-05-18T12:40:54.679Z,8.13
2019-05-18T12:43:25.458Z,8.50
2019-05-18T12:45:55.878Z,7.65
2019-05-18T12:48:26.366Z,8.35
2019-05-18T12:50:57.121Z,7.83
2019-05-18T12:53:27.543Z,6.92
2019-05-18T12:55:57.988Z,7.12
2019-05-18T12:58:28.663Z,7.12
2019-05-18T13:00:59.451Z,7.15
2019-05-18T13:03:30.279Z,9.08
2019-05-18T13:06:00.832Z,7.20
2019-05-18T13:08:31.742Z,8.65
2019-05-18T13:11:14.568Z,8.20
2019-05-18T13:13:45.219Z,7.92
2019-05-18T13:16:15.934Z,7.80
2019-05-18T13:18:46.359Z,7.72
2019-05-18T13:21:16.872Z,7.00
2019-05-18T13:23:47.459Z,6.55
2019-05-18T13:26:17.832Z,6.62
2019-05-18T13:28:48.487Z,6.37
2019-05-18T13:31:19.059Z,6.17
2019-05-18T13:33:49.508Z,6.83
2019-05-18T13:36:21.509Z,6.05
2019-05-18T13:38:52.053Z,5.72
2019-05-18T13:41:22.864Z,7.40
2019-05-18T13:43:53.598Z,6.75
2019-05-18T13:46:24.166Z,5.37
2019-05-18T13:48:54.672Z,5.50
2019-05-18T13:51:25.101Z,5.67
2019-05-18T13:53:55.630Z,5.67
2019-05-18T13:56:26.166Z,6.05
2019-05-18T13:58:56.663Z,5.45
2019-05-18T14:01:27.196Z,5.70
2019-05-18T14:03:58.234Z,5.75
2019-05-18T14:06:28.781Z,4.47
2019-05-18T14:08:59.141Z,6.60
2019-05-18T14:11:30.168Z,4.75
2019-05-18T14:14:01.935Z,4.33
2019-05-18T14:16:32.538Z,4.50
2019-05-18T14:19:03.116Z,12.90
2019-05-18T14:21:33.910Z,4.47
2019-05-18T14:24:04.616Z,4.75
2019-05-18T14:26:35.131Z,5.10
2019-05-18T14:29:05.745Z,5.95
2019-05-18T14:31:36.391Z,10.03
2019-05-18T14:34:07.305Z,6.28
2019-05-18T14:36:37.830Z,3.98
2019-05-18T14:39:08.701Z,4.58
2019-05-18T14:41:42.356Z,7.08
2019-05-18T14:44:11.461Z,4.20
2019-05-18T14:46:41.907Z,4.78
2019-05-18T14:49:12.739Z,3.47
2019-05-18T14:51:43.213Z,4.60
2019-05-18T14:54:14.218Z,4.03
2019-05-18T14:56:44.863Z,5.20
2019-05-18T14:59:16.452Z,7.05
2019-05-18T15:01:47.702Z,7.05
2019-05-18T15:04:18.148Z,7.47
2019-05-18T15:06:48.919Z,9.80
2019-05-18T15:09:19.808Z,9.03
2019-05-18T15:11:50.538Z,4.75
2019-05-18T15:14:21.171Z,4.65
2019-05-18T15:16:53.044Z,8.18
2019-05-18T15:19:23.801Z,6.45
2019-05-18T15:21:54.412Z,6.42
2019-05-18T15:24:28.572Z,5.15
2019-05-18T15:26:59.207Z,5.20
2019-05-18T15:29:30.848Z,5.78
2019-05-18T15:32:01.396Z,9.53
2019-05-18T15:34:31.997Z,5.62
2019-05-18T15:37:02.724Z,6.60
2019-05-18T15:39:33.462Z,10.82
2019-05-18T15:42:04.163Z,9.13
2019-05-18T15:44:36.128Z,4.40
2019-05-18T15:47:06.872Z,5.70
2019-05-18T15:49:37.364Z,5.25
2019-05-18T15:52:08.206Z,5.08
2019-05-18T15:54:38.803Z,4.57
2019-05-18T15:57:09.348Z,4.80
2019-05-18T15:59:39.961Z,5.50
2019-05-18T16:02:10.582Z,5.87
2019-05-18T16:04:41.165Z,4.95
2019-05-18T16:07:12.553Z,4.37
2019-05-18T16:09:43.555Z,6.10
2019-05-18T16:12:15.044Z,6.37
2019-05-18T16:14:46.771Z,4.58
2019-05-18T16:17:17.449Z,4.05
2019-05-18T16:19:48.162Z,4.92
2019-05-18T16:22:18.788Z,5.35
2019-05-18T16:24:49.526Z,4.78
2019-05-18T16:27:20.410Z,4.65
2019-05-18T16:29:50.868Z,6.63
2019-05-18T16:32:21.279Z,5.77
2019-05-18T16:34:52.058Z,7.10
2019-05-18T16:37:22.593Z,4.40
2019-05-18T16:39:54.161Z,4.10
2019-05-18T16:42:24.650Z,5.60
2019-05-18T16:44:55.075Z,4.77
2019-05-18T16:47:25.779Z,6.73
2019-05-18T16:49:56.248Z,5.40
2019-05-18T16:52:26.822Z,10.43
2019-05-18T16:54:57.654Z,6.67
2019-05-18T16:57:28.102Z,5.13
2019-05-18T16:59:58.929Z,6.20
2019-05-18T17:02:31.916Z,5.57
2019-05-18T17:05:01.492Z,5.73
2019-05-18T17:07:32.148Z,6.00
2019-05-18T17:10:02.691Z,9.13
2019-05-18T17:12:33.302Z,5.87
2019-05-18T17:15:04.288Z,6.27
2019-05-18T17:17:35.597Z,7.33
2019-05-18T17:20:06.662Z,6.13
2019-05-18T17:22:37.374Z,8.43
2019-05-18T17:25:08.033Z,7.40
2019-05-18T17:27:38.851Z,10.10
2019-05-18T17:30:09.931Z,7.20
2019-05-18T17:32:40.424Z,7.50
2019-05-18T17:35:11.370Z,7.37
2019-05-18T17:37:42.059Z,7.23
2019-05-18T17:40:13.161Z,6.97
2019-05-18T17:42:43.902Z,9.53
2019-05-18T17:45:14.391Z,8.57
2019-05-18T17:47:45.233Z,7.80
2019-05-18T17:50:15.948Z,7.87
2019-05-18T17:52:46.928Z,8.33
2019-05-18T17:55:17.838Z,8.70
2019-05-18T17:57:48.383Z,9.07
2019-05-18T18:00:19.444Z,9.83
2019-05-18T18:02:50.251Z,10.57
2019-05-18T18:05:20.943Z,9.63
2019-05-18T18:07:55.441Z,10.07
2019-05-18T18:10:25.952Z,10.10
2019-05-18T18:12:56.464Z,9.03
2019-05-18T18:15:27.407Z,12.40
2019-05-18T18:17:58.208Z,11.17
2019-05-18T18:20:28.714Z,9.70
2019-05-18T18:22:59.383Z,9.77
2019-05-18T18:25:29.852Z,14.50
2019-05-18T18:28:00.530Z,11.40
2019-05-18T18:30:31.250Z,11.00
2019-05-18T18:33:01.872Z,13.20
2019-05-18T18:35:32.604Z,11.03
2019-05-18T18:38:03.890Z,14.47
2019-05-18T18:40:34.730Z,11.33
2019-05-18T18:43:05.493Z,12.80
2019-05-18T18:45:36.371Z,11.30
2019-05-18T18:48:07.723Z,11.23
2019-05-18T18:50:39.641Z,13.23
2019-05-18T18:53:10.595Z,12.90
2019-05-18T18:55:41.547Z,13.83
2019-05-18T18:58:12.238Z,12.70
2019-05-18T19:00:42.656Z,15.47
2019-05-18T19:03:13.525Z,13.57
2019-05-18T19:05:43.949Z,17.90
2019-05-18T19:08:14.858Z,13.13
2019-05-18T19:10:45.350Z,14.33
2019-05-18T19:13:16.094Z,15.87
2019-05-18T19:15:46.873Z,12.53
2019-05-18T19:18:17.480Z,14.53
2019-05-18T19:20:47.842Z,12.00
2019-05-18T19:23:18.628Z,13.00
2019-05-18T19:25:49.475Z,12.77
2019-05-18T19:28:20.425Z,15.00
2019-05-18T19:30:50.863Z,12.20
2019-05-18T19:33:21.786Z,12.70
2019-05-18T19:35:52.565Z,12.17
2019-05-18T19:38:24.109Z,12.47
2019-05-18T19:40:54.739Z,12.77
2019-05-18T19:43:25.399Z,16.10
2019-05-18T19:45:55.845Z,12.27
2019-05-18T19:48:26.300Z,12.47
2019-05-18T19:50:57.062Z,15.30
2019-05-18T19:53:28.666Z,14.43
2019-05-18T19:55:59.478Z,13.00
2019-05-18T19:58:31.969Z,13.73
2019-05-18T20:01:03.444Z,13.10
2019-05-18T20:03:34.116Z,13.23
2019-05-18T20:06:05.152Z,13.10
2019-05-18T20:08:36.193Z,13.10
2019-05-18T20:11:06.830Z,13.53
2019-05-18T20:13:38.207Z,14.93
2019-05-18T20:16:08.698Z,13.47
2019-05-18T20:18:39.472Z,13.43
2019-05-18T20:21:10.180Z,13.20
2019-05-18T20:23:40.789Z,13.20
2019-05-18T20:26:11.499Z,13.73
2019-05-18T20:28:42.035Z,18.07
2019-05-18T20:31:12.724Z,14.37
2019-05-18T20:33:43.491Z,14.10
2019-05-18T20:36:14.256Z,15.83
2019-05-18T20:38:44.757Z,17.70
2019-05-18T20:41:15.377Z,18.20
2019-05-18T20:43:46.767Z,15.40
2019-05-18T20:46:17.196Z,16.80
2019-05-18T20:48:49.050Z,13.97
2019-05-18T20:51:19.845Z,15.83
2019-05-18T20:53:50.691Z,15.20
2019-05-18T20:56:21.703Z,15.23
2019-05-18T20:58:52.338Z,15.33
2019-05-18T21:01:23.194Z,17.07
2019-05-18T21:03:53.977Z,14.17
2019-05-18T21:06:24.585Z,15.03
2019-05-18T21:08:55.077Z,14.33
2019-05-18T21:11:25.641Z,14.73
2019-05-18T21:13:57.894Z,13.03
2019-05-18T21:16:28.558Z,12.57
2019-05-18T21:18:59.124Z,14.37
2019-05-18T21:21:29.669Z,11.17
2019-05-18T21:24:00.675Z,10.70
2019-05-18T21:26:31.153Z,10.60
2019-05-18T21:29:01.884Z,9.57
2019-05-18T21:31:32.532Z,10.83
2019-05-18T21:34:03.127Z,12.00
2019-05-18T21:36:33.554Z,12.77
2019-05-18T21:39:06.748Z,10.67
2019-05-18T21:41:37.422Z,11.37
2019-05-18T21:44:08.000Z,10.03
2019-05-18T21:46:39.164Z,11.43
2019-05-18T21:49:11.085Z,10.43
2019-05-18T21:51:41.656Z,11.97
2019-05-18T21:54:12.508Z,9.87
2019-05-18T21:56:42.909Z,9.30
2019-05-18T21:59:13.735Z,9.77
2019-05-18T22:01:44.298Z,9.70
2019-05-18T22:04:14.806Z,10.50
2019-05-18T22:06:45.522Z,8.97
2019-05-18T22:09:15.987Z,10.17
2019-05-18T22:11:46.430Z,11.93
2019-05-18T22:14:17.102Z,14.67
2019-05-18T22:16:47.735Z,11.87
2019-05-18T22:19:18.671Z,14.33
2019-05-18T22:21:49.466Z,10.03
2019-05-18T22:24:21.129Z,11.77
2019-05-18T22:26:51.851Z,10.83
2019-05-18T22:29:22.746Z,12.50
2019-05-18T22:31:53.806Z,10.70
2019-05-18T22:34:24.180Z,11.13
2019-05-18T22:36:54.855Z,10.10
2019-05-18T22:39:26.691Z,9.50
2019-05-18T22:41:57.491Z,9.10
2019-05-18T22:44:28.109Z,7.77
2019-05-18T22:46:58.682Z,8.00
2019-05-18T22:49:29.620Z,8.57
2019-05-18T22:52:00.252Z,7.10
2019-05-18T22:54:31.019Z,8.07
2019-05-18T22:57:01.622Z,11.20
2019-05-18T22:59:32.148Z,8.97
2019-05-18T23:02:02.782Z,7.23
2019-05-18T23:04:33.279Z,9.50
2019-05-18T23:07:03.979Z,8.27
2019-05-18T23:09:34.850Z,8.10
2019-05-18T23:12:05.613Z,10.47
2019-05-18T23:14:36.319Z,7.50
2019-05-18T23:17:06.851Z,8.63
2019-05-18T23:19:37.236Z,7.90
2019-05-18T23:22:08.056Z,8.73
2019-05-18T23:24:39.007Z,7.70
2019-05-18T23:27:09.402Z,8.53
2019-05-18T23:29:39.942Z,10.23
2019-05-18T23:32:10.783Z,8.03
2019-05-18T23:34:41.228Z,7.67
2019-05-18T23:37:11.671Z,8.43
2019-05-18T23:39:42.491Z,7.70
2019-05-18T23:42:13.051Z,9.77
2019-05-18T23:44:43.725Z,8.53
2019-05-18T23:47:14.329Z,10.27
2019-05-18T23:49:45.115Z,7.93
2019-05-18T23:52:15.538Z,8.50
2019-05-18T23:54:46.235Z,7.43
2019-05-18T23:57:17.866Z,9.23
2019-05-18T23:59:48.537Z,7.87
